sensor_id;sensor_type;location;lat;lon;timestamp;temperature;humidity
11387;DHT22;5748;53.102;8.456;2023-11-21T00:02:26;13.40;75.80
11387;DHT22;5748;53.102;8.456;2023-11-21T00:04:54;13.80;76.60
11387;DHT22;5748;53.102;8.456;2023-11-21T00:07:20;13.60;76.20
11387;DHT22;5748;53.102;8.456;2023-11-21T00:09:48;13.50;76.10
11387;DHT22;5748;53.102;8.456;2023-11-21T00:12:15;13.30;75.80
11387;DHT22;5748;53.102;8.456;2023-11-21T00:14:42;13.30;75.80
11387;DHT22;5748;53.102;8.456;2023-11-21T00:17:09;13.50;76.00
11387;DHT22;5748;53.102;8.456;2023-11-21T00:19:37;13.70;76.30
11387;DHT22;5748;53.102;8.456;2023-11-21T00:22:04;13.30;75.80
11387;DHT22;5748;53.102;8.456;2023-11-21T00:24:31;13.30;75.50
11387;DHT22;5748;53.102;8.456;2023-11-21T00:26:58;13.30;75.90
11387;DHT22;5748;53.102;8.456;2023-11-21T00:29:24;13.30;75.90
11387;DHT22;5748;53.102;8.456;2023-11-21T00:31:51;13.30;76.00
11387;DHT22;5748;53.102;8.456;2023-11-21T00:34:19;13.30;75.50
11387;DHT22;5748;53.102;8.456;2023-11-21T00:36:47;13.50;76.10
11387;DHT22;5748;53.102;8.456;2023-11-21T00:39:14;13.30;76.00
11387;DHT22;5748;53.102;8.456;2023-11-21T00:41:41;13.30;75.90
11387;DHT22;5748;53.102;8.456;2023-11-21T00:44:10;13.30;75.90
11387;DHT22;5748;53.102;8.456;2023-11-21T00:46:37;13.40;76.10
11387;DHT22;5748;53.102;8.456;2023-11-21T00:49:04;13.50;76.10
11387;DHT22;5748;53.102;8.456;2023-11-21T00:51:31;13.40;76.10
11387;DHT22;5748;53.102;8.456;2023-11-21T00:53:59;13.40;76.20
11387;DHT22;5748;53.102;8.456;2023-11-21T00:56:26;13.40;76.00
11387;DHT22;5748;53.102;8.456;2023-11-21T00:58:54;13.40;75.90
11387;DHT22;5748;53.102;8.456;2023-11-21T01:01:21;13.50;76.00
11387;DHT22;5748;53.102;8.456;2023-11-21T01:03:48;13.40;76.00
11387;DHT22;5748;53.102;8.456;2023-11-21T01:06:16;13.50;76.10
11387;DHT22;5748;53.102;8.456;2023-11-21T01:08:43;15.00;77.40
11387;DHT22;5748;53.102;8.456;2023-11-21T01:11:12;13.50;76.00
11387;DHT22;5748;53.102;8.456;2023-11-21T01:13:40;13.50;76.00
11387;DHT22;5748;53.102;8.456;2023-11-21T01:16:08;13.50;76.20
11387;DHT22;5748;53.102;8.456;2023-11-21T01:18:35;13.60;76.00
11387;DHT22;5748;53.102;8.456;2023-11-21T01:21:02;13.60;75.90
11387;DHT22;5748;53.102;8.456;2023-11-21T01:25:57;13.60;75.30
11387;DHT22;5748;53.102;8.456;2023-11-21T01:28:25;13.60;75.80
11387;DHT22;5748;53.102;8.456;2023-11-21T01:30:53;13.50;76.40
11387;DHT22;5748;53.102;8.456;2023-11-21T01:33:22;13.50;75.80
11387;DHT22;5748;53.102;8.456;2023-11-21T01:35:50;13.60;75.90
11387;DHT22;5748;53.102;8.456;2023-11-21T01:38:19;13.50;75.70
11387;DHT22;5748;53.102;8.456;2023-11-21T01:40:46;13.50;75.70
11387;DHT22;5748;53.102;8.456;2023-11-21T01:43:13;13.90;76.10
11387;DHT22;5748;53.102;8.456;2023-11-21T01:45:41;13.70;76.00
11387;DHT22;5748;53.102;8.456;2023-11-21T01:48:10;14.00;76.30
11387;DHT22;5748;53.102;8.456;2023-11-21T01:50:39;13.70;76.10
11387;DHT22;5748;53.102;8.456;2023-11-21T01:53:06;13.50;75.80
11387;DHT22;5748;53.102;8.456;2023-11-21T01:55:33;13.50;75.90
11387;DHT22;5748;53.102;8.456;2023-11-21T01:58:00;14.00;76.50
11387;DHT22;5748;53.102;8.456;2023-11-21T02:00:27;13.50;75.90
11387;DHT22;5748;53.102;8.456;2023-11-21T02:02:56;14.50;77.00
11387;DHT22;5748;53.102;8.456;2023-11-21T02:05:23;13.50;76.10
11387;DHT22;5748;53.102;8.456;2023-11-21T02:07:51;13.50;76.10
11387;DHT22;5748;53.102;8.456;2023-11-21T02:10:18;13.50;76.20
11387;DHT22;5748;53.102;8.456;2023-11-21T02:12:48;13.60;76.20
11387;DHT22;5748;53.102;8.456;2023-11-21T02:15:16;13.50;76.10
11387;DHT22;5748;53.102;8.456;2023-11-21T02:17:45;13.60;76.20
11387;DHT22;5748;53.102;8.456;2023-11-21T02:20:18;13.40;75.90
11387;DHT22;5748;53.102;8.456;2023-11-21T02:22:49;13.40;76.00
11387;DHT22;5748;53.102;8.456;2023-11-21T02:25:18;13.40;76.10
11387;DHT22;5748;53.102;8.456;2023-11-21T02:27:45;13.40;76.10
11387;DHT22;5748;53.102;8.456;2023-11-21T02:30:14;13.50;76.10
11387;DHT22;5748;53.102;8.456;2023-11-21T02:32:41;13.50;76.20
11387;DHT22;5748;53.102;8.456;2023-11-21T02:35:09;13.60;76.30
11387;DHT22;5748;53.102;8.456;2023-11-21T02:37:37;13.50;75.80
11387;DHT22;5748;53.102;8.456;2023-11-21T02:40:09;13.50;76.10
11387;DHT22;5748;53.102;8.456;2023-11-21T02:42:38;13.50;76.20
11387;DHT22;5748;53.102;8.456;2023-11-21T02:45:06;13.50;76.20
11387;DHT22;5748;53.102;8.456;2023-11-21T02:47:34;13.50;75.70
11387;DHT22;5748;53.102;8.456;2023-11-21T02:50:01;13.50;76.10
11387;DHT22;5748;53.102;8.456;2023-11-21T02:52:29;13.60;76.30
11387;DHT22;5748;53.102;8.456;2023-11-21T02:54:58;13.60;76.20
11387;DHT22;5748;53.102;8.456;2023-11-21T02:57:26;13.60;75.80
11387;DHT22;5748;53.102;8.456;2023-11-21T02:59:53;13.60;76.20
11387;DHT22;5748;53.102;8.456;2023-11-21T03:02:21;13.60;76.20
11387;DHT22;5748;53.102;8.456;2023-11-21T03:04:48;14.00;76.70
11387;DHT22;5748;53.102;8.456;2023-11-21T03:07:15;13.60;76.20
11387;DHT22;5748;53.102;8.456;2023-11-21T03:09:42;13.70;76.30
11387;DHT22;5748;53.102;8.456;2023-11-21T03:12:10;13.90;76.50
11387;DHT22;5748;53.102;8.456;2023-11-21T03:14:38;14.00;76.60
11387;DHT22;5748;53.102;8.456;2023-11-21T03:17:05;13.80;76.40
11387;DHT22;5748;53.102;8.456;2023-11-21T03:19:33;13.70;76.20
11387;DHT22;5748;53.102;8.456;2023-11-21T03:21:59;13.80;76.40
11387;DHT22;5748;53.102;8.456;2023-11-21T03:24:26;13.70;76.20
11387;DHT22;5748;53.102;8.456;2023-11-21T03:26:53;13.70;76.20
11387;DHT22;5748;53.102;8.456;2023-11-21T03:29:20;13.80;76.40
11387;DHT22;5748;53.102;8.456;2023-11-21T03:31:48;13.80;76.30
11387;DHT22;5748;53.102;8.456;2023-11-21T03:34:23;13.70;76.20
11387;DHT22;5748;53.102;8.456;2023-11-21T03:36:51;13.90;76.30
11387;DHT22;5748;53.102;8.456;2023-11-21T03:39:19;13.80;76.10
11387;DHT22;5748;53.102;8.456;2023-11-21T03:41:46;13.80;76.10
11387;DHT22;5748;53.102;8.456;2023-11-21T03:44:13;13.70;76.00
11387;DHT22;5748;53.102;8.456;2023-11-21T03:46:40;13.70;76.20
11387;DHT22;5748;53.102;8.456;2023-11-21T03:49:09;13.90;76.20
11387;DHT22;5748;53.102;8.456;2023-11-21T03:51:36;14.40;76.80
11387;DHT22;5748;53.102;8.456;2023-11-21T03:54:03;13.80;76.20
11387;DHT22;5748;53.102;8.456;2023-11-21T03:56:30;13.70;76.20
11387;DHT22;5748;53.102;8.456;2023-11-21T03:58:57;13.80;76.40
11387;DHT22;5748;53.102;8.456;2023-11-21T04:01:25;13.70;76.20
11387;DHT22;5748;53.102;8.456;2023-11-21T04:03:51;13.70;76.20
11387;DHT22;5748;53.102;8.456;2023-11-21T04:06:20;13.70;76.20
11387;DHT22;5748;53.102;8.456;2023-11-21T04:08:47;13.80;76.20
11387;DHT22;5748;53.102;8.456;2023-11-21T04:11:13;13.70;76.20
11387;DHT22;5748;53.102;8.456;2023-11-21T04:13:41;13.70;76.20
11387;DHT22;5748;53.102;8.456;2023-11-21T04:16:09;13.70;76.20
11387;DHT22;5748;53.102;8.456;2023-11-21T04:18:36;13.70;76.20
11387;DHT22;5748;53.102;8.456;2023-11-21T04:21:04;13.70;76.00
11387;DHT22;5748;53.102;8.456;2023-11-21T04:23:35;13.70;76.10
11387;DHT22;5748;53.102;8.456;2023-11-21T04:26:02;13.60;76.00
11387;DHT22;5748;53.102;8.456;2023-11-21T04:28:30;13.70;76.10
11387;DHT22;5748;53.102;8.456;2023-11-21T04:30:57;13.70;76.10
11387;DHT22;5748;53.102;8.456;2023-11-21T04:33:24;13.70;76.80
11387;DHT22;5748;53.102;8.456;2023-11-21T04:35:51;14.20;76.60
11387;DHT22;5748;53.102;8.456;2023-11-21T04:38:18;13.60;75.90
11387;DHT22;5748;53.102;8.456;2023-11-21T04:40:46;13.60;76.00
11387;DHT22;5748;53.102;8.456;2023-11-21T04:43:12;14.00;76.30
11387;DHT22;5748;53.102;8.456;2023-11-21T04:45:39;13.60;75.80
11387;DHT22;5748;53.102;8.456;2023-11-21T04:48:07;14.20;76.50
11387;DHT22;5748;53.102;8.456;2023-11-21T04:50:34;14.30;76.70
11387;DHT22;5748;53.102;8.456;2023-11-21T04:53:01;13.50;75.90
11387;DHT22;5748;53.102;8.456;2023-11-21T04:55:28;13.70;76.00
11387;DHT22;5748;53.102;8.456;2023-11-21T04:57:56;13.50;75.80
11387;DHT22;5748;53.102;8.456;2023-11-21T05:00:23;13.50;75.70
11387;DHT22;5748;53.102;8.456;2023-11-21T05:02:50;13.50;75.80
11387;DHT22;5748;53.102;8.456;2023-11-21T05:05:17;13.50;75.70
11387;DHT22;5748;53.102;8.456;2023-11-21T05:07:44;13.60;76.50
11387;DHT22;5748;53.102;8.456;2023-11-21T05:10:11;13.50;75.70
11387;DHT22;5748;53.102;8.456;2023-11-21T05:12:40;13.40;75.50
11387;DHT22;5748;53.102;8.456;2023-11-21T05:15:10;13.40;75.60
11387;DHT22;5748;53.102;8.456;2023-11-21T05:17:40;13.30;75.50
11387;DHT22;5748;53.102;8.456;2023-11-21T05:20:08;13.50;75.70
11387;DHT22;5748;53.102;8.456;2023-11-21T05:22:36;13.30;75.50
11387;DHT22;5748;53.102;8.456;2023-11-21T05:25:05;13.20;75.40
11387;DHT22;5748;53.102;8.456;2023-11-21T05:27:33;13.20;75.50
11387;DHT22;5748;53.102;8.456;2023-11-21T05:30:01;13.20;75.50
11387;DHT22;5748;53.102;8.456;2023-11-21T05:32:32;13.60;76.10
11387;DHT22;5748;53.102;8.456;2023-11-21T05:34:59;13.20;75.50
11387;DHT22;5748;53.102;8.456;2023-11-21T05:37:26;13.10;74.90
11387;DHT22;5748;53.102;8.456;2023-11-21T05:39:54;13.10;75.50
11387;DHT22;5748;53.102;8.456;2023-11-21T05:42:22;13.10;75.30
11387;DHT22;5748;53.102;8.456;2023-11-21T05:44:49;13.00;75.10
11387;DHT22;5748;53.102;8.456;2023-11-21T05:47:16;13.80;75.90
11387;DHT22;5748;53.102;8.456;2023-11-21T05:49:44;13.00;75.10
11387;DHT22;5748;53.102;8.456;2023-11-21T05:52:15;12.90;75.00
11387;DHT22;5748;53.102;8.456;2023-11-21T05:54:42;12.90;75.10
11387;DHT22;5748;53.102;8.456;2023-11-21T05:57:09;12.90;75.10
11387;DHT22;5748;53.102;8.456;2023-11-21T05:59:36;12.90;75.20
11387;DHT22;5748;53.102;8.456;2023-11-21T06:02:03;12.90;75.20
11387;DHT22;5748;53.102;8.456;2023-11-21T06:04:31;12.90;75.10
11387;DHT22;5748;53.102;8.456;2023-11-21T06:06:59;13.10;75.20
11387;DHT22;5748;53.102;8.456;2023-11-21T06:09:27;12.80;75.10
11387;DHT22;5748;53.102;8.456;2023-11-21T06:11:54;12.80;75.00
11387;DHT22;5748;53.102;8.456;2023-11-21T06:14:21;12.70;74.90
11387;DHT22;5748;53.102;8.456;2023-11-21T06:16:48;12.70;74.90
11387;DHT22;5748;53.102;8.456;2023-11-21T06:19:16;12.70;74.90
11387;DHT22;5748;53.102;8.456;2023-11-21T06:21:45;12.70;75.00
11387;DHT22;5748;53.102;8.456;2023-11-21T06:24:14;13.20;75.50
11387;DHT22;5748;53.102;8.456;2023-11-21T06:26:42;12.60;74.80
11387;DHT22;5748;53.102;8.456;2023-11-21T06:29:09;12.60;74.70
11387;DHT22;5748;53.102;8.456;2023-11-21T06:31:37;12.50;75.10
11387;DHT22;5748;53.102;8.456;2023-11-21T06:34:03;12.50;74.40
11387;DHT22;5748;53.102;8.456;2023-11-21T06:36:30;12.50;75.20
11387;DHT22;5748;53.102;8.456;2023-11-21T06:38:57;12.60;74.60
11387;DHT22;5748;53.102;8.456;2023-11-21T06:41:25;12.40;74.40
11387;DHT22;5748;53.102;8.456;2023-11-21T06:43:52;12.40;74.30
11387;DHT22;5748;53.102;8.456;2023-11-21T06:46:19;12.30;74.30
11387;DHT22;5748;53.102;8.456;2023-11-21T06:48:46;12.40;74.40
11387;DHT22;5748;53.102;8.456;2023-11-21T06:51:15;12.30;74.30
11387;DHT22;5748;53.102;8.456;2023-11-21T06:53:41;12.30;74.30
11387;DHT22;5748;53.102;8.456;2023-11-21T06:56:15;12.30;74.30
11387;DHT22;5748;53.102;8.456;2023-11-21T06:58:45;14.10;76.10
11387;DHT22;5748;53.102;8.456;2023-11-21T07:01:12;12.30;74.40
11387;DHT22;5748;53.102;8.456;2023-11-21T07:03:40;12.20;74.20
11387;DHT22;5748;53.102;8.456;2023-11-21T07:06:08;12.30;74.30
11387;DHT22;5748;53.102;8.456;2023-11-21T07:08:35;12.20;74.10
11387;DHT22;5748;53.102;8.456;2023-11-21T07:11:02;12.20;74.00
11387;DHT22;5748;53.102;8.456;2023-11-21T07:13:29;12.10;73.90
11387;DHT22;5748;53.102;8.456;2023-11-21T07:15:58;12.10;73.70
11387;DHT22;5748;53.102;8.456;2023-11-21T07:18:26;12.10;73.70
11387;DHT22;5748;53.102;8.456;2023-11-21T07:20:52;12.20;73.80
11387;DHT22;5748;53.102;8.456;2023-11-21T07:23:19;12.00;73.60
11387;DHT22;5748;53.102;8.456;2023-11-21T07:25:48;12.00;73.50
11387;DHT22;5748;53.102;8.456;2023-11-21T07:28:15;12.00;73.60
11387;DHT22;5748;53.102;8.456;2023-11-21T07:30:42;12.00;73.60
11387;DHT22;5748;53.102;8.456;2023-11-21T07:33:10;11.90;73.60
11387;DHT22;5748;53.102;8.456;2023-11-21T07:35:37;11.90;73.50
11387;DHT22;5748;53.102;8.456;2023-11-21T07:38:04;11.80;73.50
11387;DHT22;5748;53.102;8.456;2023-11-21T07:40:31;11.80;73.50
11387;DHT22;5748;53.102;8.456;2023-11-21T07:42:58;11.80;73.70
11387;DHT22;5748;53.102;8.456;2023-11-21T07:45:25;11.80;73.70
11387;DHT22;5748;53.102;8.456;2023-11-21T07:47:53;11.80;73.90
11387;DHT22;5748;53.102;8.456;2023-11-21T07:50:21;11.70;73.80
11387;DHT22;5748;53.102;8.456;2023-11-21T07:52:48;11.70;73.80
11387;DHT22;5748;53.102;8.456;2023-11-21T07:55:16;11.70;73.90
11387;DHT22;5748;53.102;8.456;2023-11-21T07:57:43;11.70;74.10
11387;DHT22;5748;53.102;8.456;2023-11-21T08:00:11;11.70;74.20
11387;DHT22;5748;53.102;8.456;2023-11-21T08:02:41;11.70;74.30
11387;DHT22;5748;53.102;8.456;2023-11-21T08:05:08;11.80;74.40
11387;DHT22;5748;53.102;8.456;2023-11-21T08:07:37;11.80;74.40
11387;DHT22;5748;53.102;8.456;2023-11-21T08:10:05;11.80;74.50
11387;DHT22;5748;53.102;8.456;2023-11-21T08:12:35;11.80;74.40
11387;DHT22;5748;53.102;8.456;2023-11-21T08:15:03;11.90;74.40
11387;DHT22;5748;53.102;8.456;2023-11-21T08:17:31;11.90;74.40
11387;DHT22;5748;53.102;8.456;2023-11-21T08:19:58;11.90;75.10
11387;DHT22;5748;53.102;8.456;2023-11-21T08:22:25;12.20;74.70
11387;DHT22;5748;53.102;8.456;2023-11-21T08:24:53;12.00;74.40
11387;DHT22;5748;53.102;8.456;2023-11-21T08:27:21;12.00;74.40
11387;DHT22;5748;53.102;8.456;2023-11-21T08:29:48;12.00;74.30
11387;DHT22;5748;53.102;8.456;2023-11-21T08:32:16;12.30;74.60
11387;DHT22;5748;53.102;8.456;2023-11-21T08:34:43;12.10;74.30
11387;DHT22;5748;53.102;8.456;2023-11-21T08:37:11;12.00;75.00
11387;DHT22;5748;53.102;8.456;2023-11-21T08:39:37;12.10;74.30
11387;DHT22;5748;53.102;8.456;2023-11-21T08:42:06;12.10;74.20
11387;DHT22;5748;53.102;8.456;2023-11-21T08:44:33;12.10;74.20
11387;DHT22;5748;53.102;8.456;2023-11-21T08:47:00;12.10;74.20
11387;DHT22;5748;53.102;8.456;2023-11-21T08:49:27;12.10;74.20
11387;DHT22;5748;53.102;8.456;2023-11-21T08:51:54;12.10;74.30
11387;DHT22;5748;53.102;8.456;2023-11-21T08:54:23;15.00;77.20
11387;DHT22;5748;53.102;8.456;2023-11-21T08:56:51;12.20;74.40
11387;DHT22;5748;53.102;8.456;2023-11-21T08:59:19;12.40;74.60
11387;DHT22;5748;53.102;8.456;2023-11-21T09:01:46;12.30;74.40
11387;DHT22;5748;53.102;8.456;2023-11-21T09:04:13;12.90;74.90
11387;DHT22;5748;53.102;8.456;2023-11-21T09:06:40;12.30;74.10
11387;DHT22;5748;53.102;8.456;2023-11-21T09:09:07;12.30;74.10
11387;DHT22;5748;53.102;8.456;2023-11-21T09:11:35;12.30;74.00
11387;DHT22;5748;53.102;8.456;2023-11-21T09:14:02;12.30;74.00
11387;DHT22;5748;53.102;8.456;2023-11-21T09:16:31;12.30;74.10
11387;DHT22;5748;53.102;8.456;2023-11-21T09:18:58;12.60;74.30
11387;DHT22;5748;53.102;8.456;2023-11-21T09:21:25;12.80;74.40
11387;DHT22;5748;53.102;8.456;2023-11-21T09:23:53;13.30;74.90
11387;DHT22;5748;53.102;8.456;2023-11-21T09:26:20;12.90;74.60
11387;DHT22;5748;53.102;8.456;2023-11-21T09:28:47;12.40;74.10
11387;DHT22;5748;53.102;8.456;2023-11-21T09:31:13;12.40;74.10
11387;DHT22;5748;53.102;8.456;2023-11-21T09:33:43;12.50;74.20
11387;DHT22;5748;53.102;8.456;2023-11-21T09:36:11;12.50;74.20
11387;DHT22;5748;53.102;8.456;2023-11-21T09:38:40;12.50;74.20
11387;DHT22;5748;53.102;8.456;2023-11-21T09:41:14;12.50;74.10
11387;DHT22;5748;53.102;8.456;2023-11-21T09:43:46;12.50;74.20
11387;DHT22;5748;53.102;8.456;2023-11-21T09:46:14;12.50;74.30
11387;DHT22;5748;53.102;8.456;2023-11-21T09:48:50;12.60;74.40
11387;DHT22;5748;53.102;8.456;2023-11-21T09:51:19;12.70;74.40
11387;DHT22;5748;53.102;8.456;2023-11-21T09:53:50;12.70;74.40
11387;DHT22;5748;53.102;8.456;2023-11-21T09:56:18;12.70;74.20
11387;DHT22;5748;53.102;8.456;2023-11-21T09:58:51;12.70;74.10
11387;DHT22;5748;53.102;8.456;2023-11-21T10:01:20;13.80;75.20
11387;DHT22;5748;53.102;8.456;2023-11-21T10:03:50;12.80;74.20
11387;DHT22;5748;53.102;8.456;2023-11-21T10:06:17;12.80;74.10
11387;DHT22;5748;53.102;8.456;2023-11-21T10:08:46;12.80;74.20
11387;DHT22;5748;53.102;8.456;2023-11-21T10:11:14;12.90;74.30
11387;DHT22;5748;53.102;8.456;2023-11-21T10:13:43;12.90;74.40
11387;DHT22;5748;53.102;8.456;2023-11-21T10:16:14;12.90;74.40
11387;DHT22;5748;53.102;8.456;2023-11-21T10:18:43;13.10;74.60
11387;DHT22;5748;53.102;8.456;2023-11-21T10:21:12;13.10;74.50
11387;DHT22;5748;53.102;8.456;2023-11-21T10:23:40;13.10;74.20
11387;DHT22;5748;53.102;8.456;2023-11-21T10:26:08;13.10;74.00
11387;DHT22;5748;53.102;8.456;2023-11-21T10:28:41;13.20;74.10
11387;DHT22;5748;53.102;8.456;2023-11-21T10:31:08;13.30;74.10
11387;DHT22;5748;53.102;8.456;2023-11-21T10:33:35;13.20;73.90
11387;DHT22;5748;53.102;8.456;2023-11-21T10:36:03;13.20;73.90
11387;DHT22;5748;53.102;8.456;2023-11-21T10:38:42;13.30;74.10
11387;DHT22;5748;53.102;8.456;2023-11-21T10:41:11;13.30;73.60
11387;DHT22;5748;53.102;8.456;2023-11-21T10:43:41;13.90;74.20
11387;DHT22;5748;53.102;8.456;2023-11-21T10:46:08;13.30;73.50
11387;DHT22;5748;53.102;8.456;2023-11-21T10:48:35;13.30;73.40
11387;DHT22;5748;53.102;8.456;2023-11-21T10:51:06;13.30;73.30
11387;DHT22;5748;53.102;8.456;2023-11-21T10:53:38;13.30;73.10
11387;DHT22;5748;53.102;8.456;2023-11-21T10:56:08;13.50;73.30
11387;DHT22;5748;53.102;8.456;2023-11-21T10:58:39;13.30;73.10
11387;DHT22;5748;53.102;8.456;2023-11-21T11:01:07;13.30;73.20
11387;DHT22;5748;53.102;8.456;2023-11-21T11:03:37;13.30;73.10
11387;DHT22;5748;53.102;8.456;2023-11-21T11:06:05;13.30;73.10
11387;DHT22;5748;53.102;8.456;2023-11-21T11:08:38;13.20;73.10
11387;DHT22;5748;53.102;8.456;2023-11-21T11:11:05;13.30;73.20
11387;DHT22;5748;53.102;8.456;2023-11-21T11:13:32;13.30;73.40
11387;DHT22;5748;53.102;8.456;2023-11-21T11:16:00;13.30;73.50
11387;DHT22;5748;53.102;8.456;2023-11-21T11:18:28;13.30;73.70
11387;DHT22;5748;53.102;8.456;2023-11-21T11:21:00;13.40;73.70
11387;DHT22;5748;53.102;8.456;2023-11-21T11:23:45;13.40;74.10
11387;DHT22;5748;53.102;8.456;2023-11-21T11:26:24;13.40;73.20
11387;DHT22;5748;53.102;8.456;2023-11-21T11:29:03;13.50;73.30
11387;DHT22;5748;53.102;8.456;2023-11-21T11:31:44;13.90;73.80
11387;DHT22;5748;53.102;8.456;2023-11-21T11:34:23;13.60;73.30
11387;DHT22;5748;53.102;8.456;2023-11-21T11:36:58;13.60;73.00
11387;DHT22;5748;53.102;8.456;2023-11-21T11:39:30;13.60;73.00
11387;DHT22;5748;53.102;8.456;2023-11-21T11:41:58;13.60;73.00
11387;DHT22;5748;53.102;8.456;2023-11-21T11:44:47;13.60;72.90
11387;DHT22;5748;53.102;8.456;2023-11-21T11:47:20;13.60;72.60
11387;DHT22;5748;53.102;8.456;2023-11-21T11:49:57;13.60;73.00
11387;DHT22;5748;53.102;8.456;2023-11-21T11:52:46;13.60;72.90
11387;DHT22;5748;53.102;8.456;2023-11-21T11:55:16;13.60;73.10
11387;DHT22;5748;53.102;8.456;2023-11-21T11:57:45;13.60;72.70
11387;DHT22;5748;53.102;8.456;2023-11-21T12:00:15;13.40;72.40
11387;DHT22;5748;53.102;8.456;2023-11-21T12:02:45;13.50;72.40
11387;DHT22;5748;53.102;8.456;2023-11-21T12:05:14;13.50;72.40
11387;DHT22;5748;53.102;8.456;2023-11-21T12:07:45;13.40;72.30
11387;DHT22;5748;53.102;8.456;2023-11-21T12:10:16;13.40;72.30
11387;DHT22;5748;53.102;8.456;2023-11-21T12:12:46;13.40;72.40
11387;DHT22;5748;53.102;8.456;2023-11-21T12:15:14;13.40;72.40
11387;DHT22;5748;53.102;8.456;2023-11-21T12:17:42;13.40;72.30
11387;DHT22;5748;53.102;8.456;2023-11-21T12:20:10;13.40;72.30
11387;DHT22;5748;53.102;8.456;2023-11-21T12:22:43;13.40;72.30
11387;DHT22;5748;53.102;8.456;2023-11-21T12:25:14;13.30;72.20
11387;DHT22;5748;53.102;8.456;2023-11-21T12:27:44;13.30;72.10
11387;DHT22;5748;53.102;8.456;2023-11-21T12:30:13;13.20;71.90
11387;DHT22;5748;53.102;8.456;2023-11-21T12:32:42;13.20;72.00
11387;DHT22;5748;53.102;8.456;2023-11-21T12:35:09;13.40;72.20
11387;DHT22;5748;53.102;8.456;2023-11-21T12:37:38;13.10;71.90
11387;DHT22;5748;53.102;8.456;2023-11-21T12:40:06;13.20;72.10
11387;DHT22;5748;53.102;8.456;2023-11-21T12:42:39;13.10;72.00
11387;DHT22;5748;53.102;8.456;2023-11-21T12:45:18;13.10;72.20
11387;DHT22;5748;53.102;8.456;2023-11-21T12:47:47;13.00;71.90
11387;DHT22;5748;53.102;8.456;2023-11-21T12:50:18;13.00;72.20
11387;DHT22;5748;53.102;8.456;2023-11-21T12:52:50;13.10;72.20
11387;DHT22;5748;53.102;8.456;2023-11-21T12:55:20;14.00;73.10
11387;DHT22;5748;53.102;8.456;2023-11-21T12:57:50;12.90;71.90
11387;DHT22;5748;53.102;8.456;2023-11-21T13:00:28;13.00;72.00
11387;DHT22;5748;53.102;8.456;2023-11-21T13:02:59;12.90;72.00
11387;DHT22;5748;53.102;8.456;2023-11-21T13:05:27;11.70;70.80
11387;DHT22;5748;53.102;8.456;2023-11-21T13:07:56;12.90;72.10
11387;DHT22;5748;53.102;8.456;2023-11-21T13:10:26;12.90;72.00
11387;DHT22;5748;53.102;8.456;2023-11-21T13:12:58;12.90;72.10
11387;DHT22;5748;53.102;8.456;2023-11-21T13:15:26;12.90;72.10
11387;DHT22;5748;53.102;8.456;2023-11-21T13:17:53;13.20;72.50
11387;DHT22;5748;53.102;8.456;2023-11-21T13:20:21;13.10;72.40
11387;DHT22;5748;53.102;8.456;2023-11-21T13:22:50;12.90;72.00
11387;DHT22;5748;53.102;8.456;2023-11-21T13:25:20;12.90;72.00
11387;DHT22;5748;53.102;8.456;2023-11-21T13:27:47;13.00;72.20
11387;DHT22;5748;53.102;8.456;2023-11-21T13:30:16;12.80;72.00
11387;DHT22;5748;53.102;8.456;2023-11-21T13:32:48;12.90;72.00
11387;DHT22;5748;53.102;8.456;2023-11-21T13:35:16;12.80;72.00
11387;DHT22;5748;53.102;8.456;2023-11-21T13:37:48;12.80;72.00
11387;DHT22;5748;53.102;8.456;2023-11-21T13:40:20;12.80;72.00
11387;DHT22;5748;53.102;8.456;2023-11-21T13:42:51;12.80;71.90
11387;DHT22;5748;53.102;8.456;2023-11-21T13:45:22;12.80;71.90
11387;DHT22;5748;53.102;8.456;2023-11-21T13:47:50;12.80;71.80
11387;DHT22;5748;53.102;8.456;2023-11-21T13:50:23;12.80;71.80
11387;DHT22;5748;53.102;8.456;2023-11-21T13:52:54;12.80;71.80
11387;DHT22;5748;53.102;8.456;2023-11-21T13:55:21;14.00;73.10
11387;DHT22;5748;53.102;8.456;2023-11-21T13:57:51;12.70;71.80
11387;DHT22;5748;53.102;8.456;2023-11-21T14:00:18;12.70;72.00
11387;DHT22;5748;53.102;8.456;2023-11-21T14:03:11;12.70;72.00
11387;DHT22;5748;53.102;8.456;2023-11-21T14:05:46;12.80;72.00
11387;DHT22;5748;53.102;8.456;2023-11-21T14:08:17;12.70;71.90
11387;DHT22;5748;53.102;8.456;2023-11-21T14:10:46;12.70;72.00
11387;DHT22;5748;53.102;8.456;2023-11-21T14:13:16;13.00;72.10
11387;DHT22;5748;53.102;8.456;2023-11-21T14:15:45;12.70;71.80
11387;DHT22;5748;53.102;8.456;2023-11-21T14:18:17;12.70;71.70
11387;DHT22;5748;53.102;8.456;2023-11-21T14:20:52;12.70;71.70
11387;DHT22;5748;53.102;8.456;2023-11-21T14:23:20;12.70;71.70
11387;DHT22;5748;53.102;8.456;2023-11-21T14:25:48;12.70;71.80
11387;DHT22;5748;53.102;8.456;2023-11-21T14:28:16;12.70;71.80
11387;DHT22;5748;53.102;8.456;2023-11-21T14:30:44;12.60;71.70
11387;DHT22;5748;53.102;8.456;2023-11-21T14:33:12;12.60;71.80
11387;DHT22;5748;53.102;8.456;2023-11-21T14:35:40;12.60;71.70
11387;DHT22;5748;53.102;8.456;2023-11-21T14:38:08;12.60;71.80
11387;DHT22;5748;53.102;8.456;2023-11-21T14:40:35;12.60;71.90
11387;DHT22;5748;53.102;8.456;2023-11-21T14:43:03;12.60;71.70
11387;DHT22;5748;53.102;8.456;2023-11-21T14:45:31;12.50;71.50
11387;DHT22;5748;53.102;8.456;2023-11-21T14:47:59;12.50;71.50
11387;DHT22;5748;53.102;8.456;2023-11-21T14:50:32;12.50;71.50
11387;DHT22;5748;53.102;8.456;2023-11-21T14:53:17;12.50;71.50
11387;DHT22;5748;53.102;8.456;2023-11-21T14:56:04;12.40;71.30
11387;DHT22;5748;53.102;8.456;2023-11-21T14:58:33;12.40;71.30
11387;DHT22;5748;53.102;8.456;2023-11-21T15:00:59;12.40;71.30
11387;DHT22;5748;53.102;8.456;2023-11-21T15:03:27;12.40;71.30
11387;DHT22;5748;53.102;8.456;2023-11-21T15:06:09;12.40;71.30
11387;DHT22;5748;53.102;8.456;2023-11-21T15:08:50;12.40;71.20
11387;DHT22;5748;53.102;8.456;2023-11-21T15:11:37;12.30;71.20
11387;DHT22;5748;53.102;8.456;2023-11-21T15:14:04;12.30;71.20
11387;DHT22;5748;53.102;8.456;2023-11-21T15:16:33;12.30;71.20
11387;DHT22;5748;53.102;8.456;2023-11-21T15:19:04;12.30;71.10
11387;DHT22;5748;53.102;8.456;2023-11-21T15:21:32;12.30;71.10
11387;DHT22;5748;53.102;8.456;2023-11-21T15:24:00;12.30;71.20
11387;DHT22;5748;53.102;8.456;2023-11-21T15:26:28;12.30;71.20
11387;DHT22;5748;53.102;8.456;2023-11-21T15:28:55;12.30;71.30
11387;DHT22;5748;53.102;8.456;2023-11-21T15:31:22;12.30;71.20
11387;DHT22;5748;53.102;8.456;2023-11-21T15:33:50;12.30;71.20
11387;DHT22;5748;53.102;8.456;2023-11-21T15:36:17;12.20;70.90
11387;DHT22;5748;53.102;8.456;2023-11-21T15:38:45;12.70;71.40
11387;DHT22;5748;53.102;8.456;2023-11-21T15:41:13;12.10;70.70
11387;DHT22;5748;53.102;8.456;2023-11-21T15:43:40;12.00;70.60
11387;DHT22;5748;53.102;8.456;2023-11-21T15:46:07;12.00;70.70
11387;DHT22;5748;53.102;8.456;2023-11-21T15:48:34;11.90;70.70
11387;DHT22;5748;53.102;8.456;2023-11-21T15:51:01;11.90;70.80
11387;DHT22;5748;53.102;8.456;2023-11-21T15:53:30;11.80;70.80
11387;DHT22;5748;53.102;8.456;2023-11-21T15:55:57;11.80;70.80
11387;DHT22;5748;53.102;8.456;2023-11-21T15:58:26;11.80;70.80